Time;durP1;ratioP1;P1;durP2;ratioP2;P2;SDS_P1;SDS_P2;PMS_P1;PMS_P2;Temp;Humidity;BMP_temperature;BMP_pressure;BME280_temperature;BME280_humidity;BME280_pressure;Samples;Min_cycle;Max_cycle;Signal;HPM_P1;HPM_P2
2024/01/13 00:00:26;;;;;;;4.07;1.70;;;;;;;;;;6252919;22;20297;-85
2024/01/13 00:02:52;;;;;;;2.78;1.30;;;;;;;;;;6279770;22;20022;-85
2024/01/13 00:05:18;;;;;;;3.50;1.55;;;;;;;;;;6254079;22;20021;-85
2024/01/13 00:07:47;;;;;;;4.78;1.52;;;;;;;;;;6254418;22;20054;-85
2024/01/13 00:10:18;;;;;;;6.13;2.35;;;;;;;;;;6254515;22;20011;-85
2024/01/13 00:12:53;;;;;;;4.55;2.00;;;;;;;;;;6254825;22;20019;-85
2024/01/13 00:15:19;;;;;;;4.22;1.90;;;;;;;;;;6255279;22;20015;-85
2024/01/13 00:17:45;;;;;;;4.88;2.45;;;;;;;;;;6253844;22;20019;-85
2024/01/13 00:20:12;;;;;;;5.32;1.80;;;;;;;;;;6253998;22;20153;-85
2024/01/13 00:22:47;;;;;;;4.10;2.00;;;;;;;;;;6253706;22;20019;-85
2024/01/13 00:25:14;;;;;;;6.40;2.20;;;;;;;;;;6254147;22;20019;-85
2024/01/13 00:27:43;;;;;;;6.60;2.10;;;;;;;;;;6254158;22;20426;-85
2024/01/13 00:30:15;;;;;;;4.65;1.90;;;;;;;;;;6253740;22;20055;-85
2024/01/13 00:32:41;;;;;;;5.60;2.05;;;;;;;;;;6251190;22;20011;-85
2024/01/13 00:35:08;;;;;;;6.05;1.92;;;;;;;;;;6253083;22;20447;-86
2024/01/13 00:37:37;;;;;;;7.88;1.98;;;;;;;;;;6251331;22;20015;-85
2024/01/13 00:40:04;;;;;;;3.78;1.73;;;;;;;;;;6252489;22;20455;-85
2024/01/13 00:42:30;;;;;;;2.38;1.65;;;;;;;;;;6257153;22;20090;-86
2024/01/13 00:44:56;;;;;;;6.50;1.98;;;;;;;;;;6256333;22;20470;-85
2024/01/13 00:47:22;;;;;;;3.45;1.60;;;;;;;;;;6256627;22;20023;-85
2024/01/13 00:49:48;;;;;;;6.05;1.98;;;;;;;;;;6255955;22;20019;-85
2024/01/13 00:52:14;;;;;;;4.82;2.28;;;;;;;;;;6253906;22;20523;-85
2024/01/13 00:54:43;;;;;;;4.57;1.70;;;;;;;;;;6255571;22;20015;-85
2024/01/13 00:57:11;;;;;;;3.70;1.70;;;;;;;;;;6250573;22;20023;-85
2024/01/13 00:59:37;;;;;;;5.50;1.73;;;;;;;;;;6251818;22;20023;-85
2024/01/13 01:02:03;;;;;;;7.43;1.88;;;;;;;;;;6255283;22;20332;-85
2024/01/13 01:04:29;;;;;;;8.05;1.98;;;;;;;;;;6255908;22;20019;-85
2024/01/13 01:06:56;;;;;;;10.95;2.30;;;;;;;;;;6253683;22;20023;-85
2024/01/13 01:09:22;;;;;;;2.80;1.70;;;;;;;;;;6251759;22;20045;-85
2024/01/13 01:11:48;;;;;;;4.05;1.90;;;;;;;;;;6251794;22;20015;-86
2024/01/13 01:14:14;;;;;;;5.70;2.10;;;;;;;;;;6251840;22;20019;-85
2024/01/13 01:16:40;;;;;;;4.43;1.85;;;;;;;;;;6251142;22;20321;-84
2024/01/13 01:19:06;;;;;;;7.78;2.30;;;;;;;;;;6252255;22;20543;-85
2024/01/13 01:21:32;;;;;;;5.85;1.90;;;;;;;;;;6252301;22;20015;-85
2024/01/13 01:24:01;;;;;;;4.15;2.08;;;;;;;;;;6255421;22;20129;-85
2024/01/13 01:26:27;;;;;;;8.38;2.40;;;;;;;;;;6254571;22;20053;-84
2024/01/13 01:28:56;;;;;;;7.15;2.17;;;;;;;;;;6253773;22;20393;-85
2024/01/13 01:31:22;;;;;;;7.07;2.50;;;;;;;;;;6251927;22;20451;-85
2024/01/13 01:33:48;;;;;;;6.35;2.30;;;;;;;;;;6251755;22;20016;-85
2024/01/13 01:36:14;;;;;;;4.70;2.20;;;;;;;;;;6254043;22;20023;-85
2024/01/13 01:38:42;;;;;;;7.35;2.60;;;;;;;;;;6253068;22;20011;-85
2024/01/13 01:41:09;;;;;;;10.52;2.65;;;;;;;;;;6276539;22;20015;-85
2024/01/13 01:43:35;;;;;;;5.53;2.60;;;;;;;;;;6254633;22;20053;-85
2024/01/13 01:46:02;;;;;;;5.32;2.28;;;;;;;;;;6255081;22;20015;-85
2024/01/13 01:48:31;;;;;;;8.68;2.50;;;;;;;;;;6254263;22;20019;-85
2024/01/13 01:51:00;;;;;;;8.15;2.63;;;;;;;;;;6254449;22;20111;-85
2024/01/13 01:53:27;;;;;;;7.57;2.50;;;;;;;;;;6251934;22;20035;-85
2024/01/13 01:55:53;;;;;;;5.75;2.22;;;;;;;;;;6253293;22;20089;-85
2024/01/13 01:58:22;;;;;;;4.72;2.00;;;;;;;;;;6251130;22;20015;-85
2024/01/13 02:00:49;;;;;;;5.00;1.80;;;;;;;;;;6251492;22;20015;-85
2024/01/13 02:03:15;;;;;;;4.10;2.00;;;;;;;;;;6253210;22;20022;-85
2024/01/13 02:05:41;;;;;;;3.67;1.80;;;;;;;;;;6253674;22;20015;-85
2024/01/13 02:08:07;;;;;;;5.75;1.70;;;;;;;;;;6254073;22;20019;-85
2024/01/13 02:10:34;;;;;;;6.97;2.03;;;;;;;;;;6254497;22;20106;-85
2024/01/13 02:13:00;;;;;;;4.78;2.03;;;;;;;;;;6253377;22;20363;-85
2024/01/13 02:15:27;;;;;;;3.30;1.63;;;;;;;;;;6254700;22;20023;-85
2024/01/13 02:17:53;;;;;;;4.72;1.40;;;;;;;;;;6253201;22;20011;-85
2024/01/13 02:20:22;;;;;;;4.45;1.60;;;;;;;;;;6251268;22;20015;-85
2024/01/13 02:22:56;;;;;;;2.50;1.40;;;;;;;;;;6252519;22;20015;-85
2024/01/13 02:25:22;;;;;;;2.85;1.50;;;;;;;;;;6251535;22;20047;-85
2024/01/13 02:27:48;;;;;;;3.88;1.40;;;;;;;;;;6252272;22;20042;-85
2024/01/13 02:30:14;;;;;;;3.85;1.30;;;;;;;;;;6253046;22;20019;-85
2024/01/13 02:32:40;;;;;;;3.17;1.30;;;;;;;;;;6252654;22;20051;-85
2024/01/13 02:35:08;;;;;;;3.10;1.10;;;;;;;;;;6251053;22;20443;-85
2024/01/13 02:37:34;;;;;;;5.05;1.48;;;;;;;;;;6253733;22;20094;-85
2024/01/13 02:40:00;;;;;;;3.13;1.33;;;;;;;;;;6254695;22;20531;-85
2024/01/13 02:42:26;;;;;;;5.93;1.30;;;;;;;;;;6253592;22;20456;-85
2024/01/13 02:44:52;;;;;;;6.80;1.75;;;;;;;;;;6251648;22;20051;-85
2024/01/13 02:47:23;;;;;;;3.38;1.38;;;;;;;;;;6254563;22;20442;-85
2024/01/13 02:49:49;;;;;;;5.88;2.10;;;;;;;;;;6253227;22;20050;-85
2024/01/13 02:52:15;;;;;;;2.30;1.45;;;;;;;;;;6252482;22;20149;-85
2024/01/13 02:54:43;;;;;;;3.65;1.48;;;;;;;;;;6252474;22;20470;-85
2024/01/13 02:57:10;;;;;;;8.15;1.80;;;;;;;;;;6250255;22;20058;-86
2024/01/13 02:59:36;;;;;;;4.97;1.73;;;;;;;;;;6250824;22;20011;-85
2024/01/13 03:02:02;;;;;;;4.30;1.77;;;;;;;;;;6250677;22;20061;-85
2024/01/13 03:04:28;;;;;;;4.50;1.58;;;;;;;;;;6280924;22;20069;-85
2024/01/13 03:06:54;;;;;;;4.10;1.83;;;;;;;;;;6252673;22;20019;-85
2024/01/13 03:09:20;;;;;;;3.72;1.90;;;;;;;;;;6251089;22;20011;-85
2024/01/13 03:11:46;;;;;;;3.67;2.03;;;;;;;;;;6250814;22;20057;-85
2024/01/13 03:14:13;;;;;;;6.97;2.60;;;;;;;;;;6251107;22;20022;-85
2024/01/13 03:16:39;;;;;;;4.75;2.13;;;;;;;;;;6250880;22;20015;-84
2024/01/13 03:19:06;;;;;;;5.18;2.22;;;;;;;;;;6250269;22;20022;-85
2024/01/13 03:21:32;;;;;;;5.95;2.35;;;;;;;;;;6251369;22;20080;-85
2024/01/13 03:23:58;;;;;;;5.43;2.22;;;;;;;;;;6254603;22;20098;-85
2024/01/13 03:26:27;;;;;;;5.57;2.40;;;;;;;;;;6279938;22;20030;-85
2024/01/13 03:28:53;;;;;;;6.03;2.17;;;;;;;;;;6250984;22;20031;-85
2024/01/13 03:31:19;;;;;;;5.47;2.40;;;;;;;;;;6252238;22;20025;-85
2024/01/13 03:33:46;;;;;;;4.40;2.40;;;;;;;;;;6251929;22;20068;-85
2024/01/13 03:36:12;;;;;;;4.03;2.22;;;;;;;;;;6250333;22;20047;-85
2024/01/13 03:38:38;;;;;;;6.93;2.30;;;;;;;;;;6250980;22;20440;-84
2024/01/13 03:41:07;;;;;;;5.45;2.30;;;;;;;;;;6251639;22;20023;-85
2024/01/13 03:43:33;;;;;;;6.32;2.45;;;;;;;;;;6253375;22;20018;-84
2024/01/13 03:45:59;;;;;;;9.55;2.58;;;;;;;;;;6252138;22;20022;-84
2024/01/13 03:48:26;;;;;;;5.13;2.30;;;;;;;;;;6250552;22;20015;-85
2024/01/13 03:50:52;;;;;;;6.95;2.75;;;;;;;;;;6252630;22;20455;-85
2024/01/13 03:53:18;;;;;;;5.75;2.28;;;;;;;;;;6276849;22;20019;-85
2024/01/13 03:55:44;;;;;;;5.70;2.30;;;;;;;;;;6253634;22;20023;-85
2024/01/13 03:58:10;;;;;;;6.93;2.30;;;;;;;;;;6250327;22;20352;-85
2024/01/13 04:00:36;;;;;;;8.07;2.42;;;;;;;;;;6276129;22;20023;-85
2024/01/13 04:03:03;;;;;;;6.38;2.35;;;;;;;;;;6250695;22;20321;-84
2024/01/13 04:05:29;;;;;;;8.27;2.47;;;;;;;;;;6250550;22;20015;-85
2024/01/13 04:07:55;;;;;;;6.35;2.13;;;;;;;;;;6277573;22;20056;-85
2024/01/13 04:10:21;;;;;;;5.10;2.30;;;;;;;;;;6249775;22;20023;-85
2024/01/13 04:12:48;;;;;;;8.50;2.50;;;;;;;;;;6276426;22;20019;-84
2024/01/13 04:15:14;;;;;;;4.07;2.15;;;;;;;;;;6253632;22;20022;-84
2024/01/13 04:17:40;;;;;;;6.32;2.30;;;;;;;;;;6250981;22;20027;-85
2024/01/13 04:20:07;;;;;;;4.45;2.03;;;;;;;;;;6250097;22;20051;-85
2024/01/13 04:22:33;;;;;;;6.82;2.50;;;;;;;;;;6250236;22;20451;-85
2024/01/13 04:24:59;;;;;;;6.15;2.20;;;;;;;;;;6250285;22;20068;-85
2024/01/13 04:27:25;;;;;;;7.75;2.17;;;;;;;;;;6249583;22;20015;-85
2024/01/13 04:29:51;;;;;;;7.03;2.20;;;;;;;;;;6250193;22;20023;-84
2024/01/13 04:32:17;;;;;;;6.85;2.33;;;;;;;;;;6249798;22;20459;-85
2024/01/13 04:34:43;;;;;;;4.15;1.88;;;;;;;;;;6250496;22;20073;-85
2024/01/13 04:37:13;;;;;;;4.20;1.60;;;;;;;;;;6250186;22;20026;-85
2024/01/13 04:39:39;;;;;;;6.80;1.92;;;;;;;;;;6250421;22;20015;-85
2024/01/13 04:42:05;;;;;;;5.97;1.70;;;;;;;;;;6250015;22;20011;-85
2024/01/13 04:44:31;;;;;;;5.38;1.80;;;;;;;;;;6278443;22;20023;-85
2024/01/13 04:46:57;;;;;;;4.72;1.60;;;;;;;;;;6252239;22;20416;-85
2024/01/13 04:49:23;;;;;;;6.13;1.80;;;;;;;;;;6250344;22;20026;-85
2024/01/13 04:51:49;;;;;;;5.88;1.70;;;;;;;;;;6250017;22;20098;-85
2024/01/13 04:54:18;;;;;;;3.00;1.33;;;;;;;;;;6251456;22;20024;-85
2024/01/13 04:56:45;;;;;;;4.28;1.50;;;;;;;;;;6252416;22;20027;-85
2024/01/13 04:59:11;;;;;;;4.97;1.63;;;;;;;;;;6253015;22;20378;-85
2024/01/13 05:01:37;;;;;;;3.40;1.70;;;;;;;;;;6253318;22;20027;-85
2024/01/13 05:04:03;;;;;;;4.55;2.03;;;;;;;;;;6250103;22;20012;-85
2024/01/13 05:06:32;;;;;;;4.63;1.80;;;;;;;;;;6249943;22;20026;-85
2024/01/13 05:08:59;;;;;;;2.28;1.27;;;;;;;;;;6249355;22;20153;-85
2024/01/13 05:11:25;;;;;;;3.17;1.60;;;;;;;;;;6275320;22;20072;-85
2024/01/13 05:13:51;;;;;;;5.30;1.73;;;;;;;;;;6251937;22;20019;-84
2024/01/13 05:16:18;;;;;;;3.33;1.80;;;;;;;;;;6253407;22;20328;-85
2024/01/13 05:18:44;;;;;;;6.10;1.95;;;;;;;;;;6250187;22;20019;-85
2024/01/13 05:21:10;;;;;;;5.18;2.00;;;;;;;;;;6250420;22;20024;-85
2024/01/13 05:23:37;;;;;;;7.65;2.95;;;;;;;;;;6251853;22;20026;-85
2024/01/13 05:26:04;;;;;;;6.05;2.25;;;;;;;;;;6253417;22;20293;-85
2024/01/13 05:28:30;;;;;;;3.85;1.85;;;;;;;;;;6280612;22;20015;-85
2024/01/13 05:30:56;;;;;;;5.95;1.98;;;;;;;;;;6254641;22;20011;-85
2024/01/13 05:33:26;;;;;;;3.53;1.80;;;;;;;;;;6253370;22;20015;-85
2024/01/13 05:35:53;;;;;;;4.25;1.70;;;;;;;;;;6252281;22;20128;-86
2024/01/13 05:38:20;;;;;;;4.00;1.77;;;;;;;;;;6253667;22;20019;-85
2024/01/13 05:40:54;;;;;;;7.63;1.73;;;;;;;;;;6252666;22;20344;-85
2024/01/13 05:43:20;;;;;;;4.43;1.75;;;;;;;;;;6255401;22;20015;-85
2024/01/13 05:45:47;;;;;;;4.13;2.00;;;;;;;;;;6256076;22;20075;-85
2024/01/13 05:48:15;;;;;;;4.32;1.65;;;;;;;;;;6252781;22;20018;-85
2024/01/13 05:50:43;;;;;;;3.80;1.85;;;;;;;;;;6253660;22;20019;-85
2024/01/13 05:53:09;;;;;;;4.32;1.70;;;;;;;;;;6254416;22;20092;-85
2024/01/13 05:55:38;;;;;;;4.32;1.75;;;;;;;;;;6252664;22;20034;-86
2024/01/13 05:58:08;;;;;;;20.67;4.00;;;;;;;;;;6252689;22;20053;-85
2024/01/13 06:00:34;;;;;;;3.80;1.95;;;;;;;;;;6253112;22;20019;-86
2024/01/13 06:03:00;;;;;;;4.78;2.10;;;;;;;;;;6253939;22;20057;-86
2024/01/13 06:05:26;;;;;;;5.95;2.35;;;;;;;;;;6252439;22;20155;-86
2024/01/13 06:07:52;;;;;;;4.18;2.00;;;;;;;;;;6251475;22;20350;-86
2024/01/13 06:10:21;;;;;;;4.28;2.10;;;;;;;;;;6254880;22;20053;-85
2024/01/13 06:12:47;;;;;;;5.28;2.40;;;;;;;;;;6253063;22;20073;-86
2024/01/13 06:15:13;;;;;;;6.25;1.60;;;;;;;;;;6251864;22;20018;-86
2024/01/13 06:17:39;;;;;;;4.18;1.40;;;;;;;;;;6253735;22;20015;-85
2024/01/13 06:20:06;;;;;;;5.55;1.55;;;;;;;;;;6253810;22;20023;-85
2024/01/13 06:22:32;;;;;;;2.38;1.10;;;;;;;;;;6276453;22;20015;-85
2024/01/13 06:24:58;;;;;;;3.28;1.77;;;;;;;;;;6252523;22;20365;-85
2024/01/13 06:27:27;;;;;;;5.65;1.40;;;;;;;;;;6252984;22;20340;-85
2024/01/13 06:29:53;;;;;;;1.17;0.88;;;;;;;;;;6250605;22;20023;-85
2024/01/13 06:32:19;;;;;;;1.50;1.00;;;;;;;;;;6250401;22;20015;-85
2024/01/13 06:34:45;;;;;;;4.15;1.30;;;;;;;;;;6253434;22;20017;-85
2024/01/13 06:37:12;;;;;;;5.05;1.83;;;;;;;;;;6251412;22;20431;-85
2024/01/13 06:39:38;;;;;;;3.63;1.60;;;;;;;;;;6252492;22;20019;-85
2024/01/13 06:42:06;;;;;;;5.20;1.95;;;;;;;;;;6253847;22;20026;-85
2024/01/13 06:44:35;;;;;;;3.83;2.13;;;;;;;;;;6252600;22;20022;-85
2024/01/13 06:47:02;;;;;;;7.22;2.67;;;;;;;;;;6252199;22;20015;-85
2024/01/13 06:49:28;;;;;;;6.07;3.50;;;;;;;;;;6253381;22;20026;-85
2024/01/13 06:51:54;;;;;;;8.05;4.25;;;;;;;;;;6253051;22;20061;-86
2024/01/13 06:54:21;;;;;;;11.07;4.47;;;;;;;;;;6251214;22;20069;-86
2024/01/13 06:56:47;;;;;;;16.05;6.47;;;;;;;;;;6251918;22;20072;-86
2024/01/13 06:59:13;;;;;;;15.70;7.53;;;;;;;;;;6254119;22;20479;-85
2024/01/13 07:01:42;;;;;;;15.13;6.97;;;;;;;;;;6280352;22;20132;-86
2024/01/13 07:04:09;;;;;;;18.40;8.73;;;;;;;;;;6254542;22;20102;-85
2024/01/13 07:06:36;;;;;;;19.40;11.10;;;;;;;;;;6254113;22;20017;-86
2024/01/13 07:09:05;;;;;;;25.35;12.85;;;;;;;;;;6254279;22;20065;-86
2024/01/13 07:11:31;;;;;;;34.10;16.58;;;;;;;;;;6253751;22;20344;-85
2024/01/13 07:14:00;;;;;;;37.03;18.75;;;;;;;;;;6254234;22;20050;-88
2024/01/13 07:16:26;;;;;;;46.00;22.17;;;;;;;;;;6253963;22;20011;-85
2024/01/13 07:18:52;;;;;;;43.10;21.05;;;;;;;;;;6250164;22;20019;-86
2024/01/13 07:21:19;;;;;;;51.53;24.00;;;;;;;;;;6277639;22;20096;-86
2024/01/13 07:23:45;;;;;;;43.67;23.60;;;;;;;;;;6250650;22;20094;-86
2024/01/13 07:26:14;;;;;;;43.33;20.23;;;;;;;;;;6251162;22;20535;-85
2024/01/13 07:28:41;;;;;;;42.90;22.88;;;;;;;;;;6252887;22;20094;-85
2024/01/13 07:31:07;;;;;;;50.80;23.42;;;;;;;;;;6252707;22;20016;-85
2024/01/13 07:33:33;;;;;;;43.15;19.95;;;;;;;;;;6250886;22;20023;-85
2024/01/13 07:35:59;;;;;;;50.42;23.27;;;;;;;;;;6279445;22;20022;-85
2024/01/13 07:38:26;;;;;;;48.08;24.23;;;;;;;;;;6251645;22;20094;-85
2024/01/13 07:40:55;;;;;;;50.63;24.65;;;;;;;;;;6251405;22;20098;-85
2024/01/13 07:43:24;;;;;;;51.38;24.30;;;;;;;;;;6253748;22;20019;-86
2024/01/13 07:45:50;;;;;;;52.80;25.58;;;;;;;;;;6252964;22;20065;-86
2024/01/13 07:48:16;;;;;;;58.42;28.60;;;;;;;;;;6252995;22;20343;-85
2024/01/13 07:50:42;;;;;;;52.53;27.52;;;;;;;;;;6251339;22;20094;-85
2024/01/13 07:53:11;;;;;;;50.35;26.60;;;;;;;;;;6250288;22;20054;-85
2024/01/13 07:55:37;;;;;;;59.75;29.77;;;;;;;;;;6251444;22;20011;-86
2024/01/13 07:58:06;;;;;;;56.25;29.60;;;;;;;;;;6253142;22;20019;-87
2024/01/13 08:00:40;;;;;;;60.58;29.48;;;;;;;;;;6254353;22;20015;-86
2024/01/13 08:03:07;;;;;;;56.95;28.30;;;;;;;;;;6252863;22;20015;-85
2024/01/13 08:05:33;;;;;;;51.13;26.73;;;;;;;;;;6252923;22;20015;-86
2024/01/13 08:08:00;;;;;;;51.00;26.85;;;;;;;;;;6250957;22;20015;-84
2024/01/13 08:10:35;;;;;;;52.65;24.75;;;;;;;;;;6249856;22;20099;-87
2024/01/13 08:13:02;;;;;;;51.33;25.83;;;;;;;;;;6250098;22;20023;-86
2024/01/13 08:15:28;;;;;;;57.53;26.83;;;;;;;;;;6250541;22;20023;-86
2024/01/13 08:17:57;;;;;;;59.03;29.35;;;;;;;;;;6275105;22;20015;-86
2024/01/13 08:20:25;;;;;;;58.95;30.13;;;;;;;;;;6250686;22;20019;-86
2024/01/13 08:22:52;;;;;;;61.88;30.48;;;;;;;;;;6250131;22;20019;-85
2024/01/13 08:25:18;;;;;;;60.10;29.83;;;;;;;;;;6250669;22;20015;-85
2024/01/13 08:27:44;;;;;;;61.78;28.50;;;;;;;;;;6253395;22;20015;-84
2024/01/13 08:30:14;;;;;;;59.78;28.80;;;;;;;;;;6253827;22;20043;-88
2024/01/13 08:32:45;;;;;;;52.25;27.63;;;;;;;;;;6254333;22;20029;-88
2024/01/13 08:35:12;;;;;;;48.00;24.95;;;;;;;;;;6254519;22;20015;-86
2024/01/13 08:37:38;;;;;;;48.70;24.15;;;;;;;;;;6254941;22;20451;-83
2024/01/13 08:40:04;;;;;;;41.13;21.60;;;;;;;;;;6280686;22;20027;-83
2024/01/13 08:42:31;;;;;;;41.50;21.55;;;;;;;;;;6310727;22;20026;-83
2024/01/13 08:44:57;;;;;;;42.10;20.52;;;;;;;;;;6311591;22;20082;-83
2024/01/13 08:47:24;;;;;;;34.55;19.20;;;;;;;;;;6283319;22;20015;-83
2024/01/13 08:49:50;;;;;;;33.60;18.90;;;;;;;;;;6283099;22;20103;-82
2024/01/13 08:52:16;;;;;;;35.83;19.35;;;;;;;;;;6257722;22;20023;-83
2024/01/13 08:54:42;;;;;;;35.08;17.75;;;;;;;;;;6255654;22;20095;-84
2024/01/13 08:57:08;;;;;;;34.65;16.63;;;;;;;;;;6284265;22;20035;-82
2024/01/13 08:59:37;;;;;;;33.05;16.90;;;;;;;;;;6311602;22;20011;-83
2024/01/13 09:02:03;;;;;;;30.92;17.35;;;;;;;;;;6258535;22;20026;-82
2024/01/13 09:04:30;;;;;;;38.33;18.05;;;;;;;;;;6313126;22;20016;-83
2024/01/13 09:06:58;;;;;;;35.45;17.95;;;;;;;;;;6285821;22;20023;-82
2024/01/13 09:09:24;;;;;;;32.78;17.40;;;;;;;;;;6259903;22;20021;-82
2024/01/13 09:11:50;;;;;;;33.05;17.15;;;;;;;;;;6313157;22;20011;-82
2024/01/13 09:14:17;;;;;;;30.63;16.20;;;;;;;;;;6286033;22;20026;-82
2024/01/13 09:16:44;;;;;;;27.38;14.43;;;;;;;;;;6285023;22;20012;-82
2024/01/13 09:19:10;;;;;;;29.02;14.07;;;;;;;;;;6285111;22;20365;-82
2024/01/13 09:21:36;;;;;;;27.40;12.02;;;;;;;;;;6284364;22;20016;-82
2024/01/13 09:24:02;;;;;;;26.52;12.05;;;;;;;;;;6258973;22;20103;-82
2024/01/13 09:26:29;;;;;;;26.52;10.70;;;;;;;;;;6259319;22;20023;-82
2024/01/13 09:28:55;;;;;;;23.00;10.82;;;;;;;;;;6284009;22;20053;-82
2024/01/13 09:31:21;;;;;;;17.08;9.95;;;;;;;;;;6284163;22;20019;-83
2024/01/13 09:33:47;;;;;;;21.20;9.45;;;;;;;;;;6284075;22;20019;-83
2024/01/13 09:36:14;;;;;;;24.90;10.75;;;;;;;;;;6284548;22;20023;-83
2024/01/13 09:38:40;;;;;;;21.05;10.25;;;;;;;;;;6313243;22;20038;-83
2024/01/13 09:41:06;;;;;;;18.90;8.90;;;;;;;;;;6258883;22;20344;-82
2024/01/13 09:43:35;;;;;;;16.00;9.30;;;;;;;;;;6312220;22;20015;-82
2024/01/13 09:46:01;;;;;;;19.85;7.45;;;;;;;;;;6312190;22;20351;-82
2024/01/13 09:48:28;;;;;;;20.65;8.00;;;;;;;;;;6312743;22;20015;-83
2024/01/13 09:50:55;;;;;;;18.85;7.18;;;;;;;;;;6311967;22;20068;-83
2024/01/13 09:53:28;;;;;;;18.45;7.57;;;;;;;;;;6312890;22;20015;-83
2024/01/13 09:55:56;;;;;;;18.55;7.10;;;;;;;;;;6312567;22;20019;-83
2024/01/13 09:58:26;;;;;;;16.33;6.38;;;;;;;;;;6285721;22;20011;-83
2024/01/13 10:00:56;;;;;;;13.10;5.35;;;;;;;;;;6312969;22;20019;-83
2024/01/13 10:03:22;;;;;;;11.48;5.05;;;;;;;;;;6312919;22;20396;-83
2024/01/13 10:05:50;;;;;;;16.35;5.80;;;;;;;;;;6314254;22;20069;-83
2024/01/13 10:08:19;;;;;;;13.60;5.53;;;;;;;;;;6285453;22;20354;-83
2024/01/13 10:10:45;;;;;;;14.85;4.78;;;;;;;;;;6284175;22;20023;-83
2024/01/13 10:13:11;;;;;;;14.68;4.95;;;;;;;;;;6284825;22;20015;-83
2024/01/13 10:15:37;;;;;;;10.27;3.42;;;;;;;;;;6314022;22;20015;-83
2024/01/13 10:18:07;;;;;;;8.00;2.72;;;;;;;;;;6313396;22;20022;-83
2024/01/13 10:20:33;;;;;;;7.70;3.40;;;;;;;;;;6285291;22;20038;-83
2024/01/13 10:22:59;;;;;;;11.25;3.80;;;;;;;;;;6314131;22;20016;-83
2024/01/13 10:25:25;;;;;;;10.85;3.53;;;;;;;;;;6318275;22;20015;-83
2024/01/13 10:27:51;;;;;;;11.38;3.88;;;;;;;;;;6288684;22;20015;-83
2024/01/13 10:30:17;;;;;;;6.70;3.20;;;;;;;;;;6287994;22;20019;-83
2024/01/13 10:32:43;;;;;;;11.40;3.92;;;;;;;;;;6314640;22;20086;-83
2024/01/13 10:35:17;;;;;;;9.98;3.40;;;;;;;;;;6285982;22;20367;-83
2024/01/13 10:37:43;;;;;;;6.28;3.28;;;;;;;;;;6313811;22;20094;-83
2024/01/13 10:40:09;;;;;;;9.20;3.40;;;;;;;;;;6314546;22;20059;-83
2024/01/13 10:42:37;;;;;;;8.93;3.10;;;;;;;;;;6312998;22;20015;-83
2024/01/13 10:45:07;;;;;;;9.93;3.58;;;;;;;;;;6314464;22;20015;-83
2024/01/13 10:47:35;;;;;;;6.43;3.30;;;;;;;;;;6287185;22;20019;-83
2024/01/13 10:50:02;;;;;;;5.95;3.40;;;;;;;;;;6311996;22;20072;-83
2024/01/13 10:52:38;;;;;;;8.82;3.15;;;;;;;;;;6310114;22;20026;-84
2024/01/13 10:55:04;;;;;;;7.78;3.05;;;;;;;;;;6312518;22;20451;-84
2024/01/13 10:57:32;;;;;;;13.38;3.60;;;;;;;;;;6311395;22;20034;-82
2024/01/13 10:59:59;;;;;;;7.38;2.90;;;;;;;;;;6284770;22;20077;-81
2024/01/13 11:02:27;;;;;;;8.77;3.10;;;;;;;;;;6310688;22;20475;-82
2024/01/13 11:04:53;;;;;;;11.00;3.00;;;;;;;;;;6307404;22;20023;-81
2024/01/13 11:07:19;;;;;;;9.32;2.88;;;;;;;;;;6307671;22;20455;-81
2024/01/13 11:09:46;;;;;;;12.98;3.60;;;;;;;;;;6308559;22;20016;-82
2024/01/13 11:12:12;;;;;;;7.80;3.30;;;;;;;;;;6307310;22;20387;-82
2024/01/13 11:14:48;;;;;;;7.53;2.60;;;;;;;;;;6309984;22;20023;-82
2024/01/13 11:17:15;;;;;;;9.52;2.80;;;;;;;;;;6282959;22;20019;-82
2024/01/13 11:19:43;;;;;;;8.85;3.28;;;;;;;;;;6284051;22;20023;-82
2024/01/13 11:22:28;;;;;;;7.40;2.55;;;;;;;;;;6310928;22;20027;-82
2024/01/13 11:24:54;;;;;;;13.63;3.45;;;;;;;;;;6311115;22;20110;-82
2024/01/13 11:27:22;;;;;;;6.85;3.35;;;;;;;;;;6311719;22;20035;-82
2024/01/13 11:29:48;;;;;;;10.25;2.90;;;;;;;;;;6307246;22;20023;-82
2024/01/13 11:32:14;;;;;;;9.23;2.83;;;;;;;;;;6307158;22;20030;-82
2024/01/13 11:34:40;;;;;;;10.25;2.75;;;;;;;;;;6279742;22;20064;-82
2024/01/13 11:37:10;;;;;;;7.72;2.55;;;;;;;;;;6307296;22;20027;-82
2024/01/13 11:39:36;;;;;;;9.60;3.10;;;;;;;;;;6307609;22;20074;-82
2024/01/13 11:42:03;;;;;;;8.60;3.15;;;;;;;;;;6280573;22;20026;-82
2024/01/13 11:44:35;;;;;;;5.10;2.22;;;;;;;;;;6307323;22;20026;-81
2024/01/13 11:47:05;;;;;;;8.48;2.70;;;;;;;;;;6308569;22;20011;-81
2024/01/13 11:49:44;;;;;;;8.25;2.30;;;;;;;;;;6310655;22;20026;-82
2024/01/13 11:52:11;;;;;;;5.25;2.65;;;;;;;;;;6310529;22;20331;-82
2024/01/13 11:54:38;;;;;;;5.22;2.50;;;;;;;;;;6283007;22;20016;-82
2024/01/13 11:57:08;;;;;;;4.63;2.25;;;;;;;;;;6256970;22;20623;-82
2024/01/13 11:59:34;;;;;;;6.13;2.30;;;;;;;;;;6310012;22;20015;-82
2024/01/13 12:02:01;;;;;;;5.97;2.40;;;;;;;;;;6282705;22;20023;-82
2024/01/13 12:04:31;;;;;;;6.28;2.13;;;;;;;;;;6284294;22;20019;-82
2024/01/13 12:06:57;;;;;;;6.55;1.83;;;;;;;;;;6310636;22;20102;-82
2024/01/13 12:09:24;;;;;;;4.72;1.90;;;;;;;;;;6283651;22;20015;-82
2024/01/13 12:11:53;;;;;;;11.00;2.28;;;;;;;;;;6311546;22;20067;-82
2024/01/13 12:14:24;;;;;;;7.53;2.40;;;;;;;;;;6311451;22;20460;-82
2024/01/13 12:16:50;;;;;;;8.35;2.55;;;;;;;;;;6310515;22;20035;-82
2024/01/13 12:19:16;;;;;;;10.00;2.00;;;;;;;;;;6283802;22;20027;-81
2024/01/13 12:21:42;;;;;;;4.90;2.05;;;;;;;;;;6310684;22;20015;-81
2024/01/13 12:24:08;;;;;;;6.90;2.80;;;;;;;;;;6310380;22;20049;-81
2024/01/13 12:26:35;;;;;;;10.32;2.50;;;;;;;;;;6311318;22;20058;-81
2024/01/13 12:29:01;;;;;;;10.38;2.33;;;;;;;;;;6311238;22;20019;-81
2024/01/13 12:31:27;;;;;;;10.43;2.60;;;;;;;;;;6310605;22;20034;-81
2024/01/13 12:33:53;;;;;;;8.93;2.17;;;;;;;;;;6310617;22;20045;-81
2024/01/13 12:36:19;;;;;;;12.30;3.00;;;;;;;;;;6284622;22;20407;-81
2024/01/13 12:38:45;;;;;;;16.08;2.78;;;;;;;;;;6312809;22;20045;-81
2024/01/13 12:41:11;;;;;;;13.98;2.58;;;;;;;;;;6312626;22;20027;-81
2024/01/13 12:43:39;;;;;;;11.02;2.63;;;;;;;;;;6312888;22;20019;-81
2024/01/13 12:46:05;;;;;;;9.68;2.95;;;;;;;;;;6285437;22;20019;-82
2024/01/13 12:48:31;;;;;;;8.90;2.40;;;;;;;;;;6313151;22;20102;-82
2024/01/13 12:51:06;;;;;;;9.38;2.85;;;;;;;;;;6313420;22;20031;-81
2024/01/13 12:53:35;;;;;;;12.85;2.80;;;;;;;;;;6313676;22;20019;-82
2024/01/13 12:56:01;;;;;;;9.98;2.83;;;;;;;;;;6313897;22;20021;-82
2024/01/13 12:58:27;;;;;;;12.90;2.70;;;;;;;;;;6312921;22;20015;-82
2024/01/13 13:00:53;;;;;;;13.38;3.00;;;;;;;;;;6285008;22;20045;-82
2024/01/13 13:03:19;;;;;;;11.32;3.13;;;;;;;;;;6312174;22;20053;-82
2024/01/13 13:05:46;;;;;;;7.13;2.40;;;;;;;;;;6312062;22;20030;-82
2024/01/13 13:08:12;;;;;;;13.40;2.67;;;;;;;;;;6312864;22;20042;-82
2024/01/13 13:10:38;;;;;;;8.13;2.45;;;;;;;;;;6312506;22;20018;-82
2024/01/13 13:13:06;;;;;;;9.77;2.42;;;;;;;;;;6313369;22;20019;-82
2024/01/13 13:15:32;;;;;;;7.55;2.33;;;;;;;;;;6285179;22;20140;-82
2024/01/13 13:17:58;;;;;;;9.32;2.42;;;;;;;;;;6312824;22;20030;-81
2024/01/13 13:20:24;;;;;;;8.05;2.70;;;;;;;;;;6313074;22;20041;-82
2024/01/13 13:22:50;;;;;;;8.88;2.35;;;;;;;;;;6312993;22;20109;-82
2024/01/13 13:25:16;;;;;;;12.55;3.17;;;;;;;;;;6312955;22;20353;-82
2024/01/13 13:27:42;;;;;;;9.90;3.47;;;;;;;;;;6312904;22;20108;-81
2024/01/13 13:30:09;;;;;;;7.80;2.10;;;;;;;;;;6311504;22;20466;-81
2024/01/13 13:32:35;;;;;;;12.23;2.72;;;;;;;;;;6313086;22;20097;-81
2024/01/13 13:35:01;;;;;;;12.63;2.42;;;;;;;;;;6286498;22;20019;-81
2024/01/13 13:37:27;;;;;;;7.28;2.70;;;;;;;;;;6261031;22;20015;-81
2024/01/13 13:39:53;;;;;;;7.88;2.35;;;;;;;;;;6286678;22;20022;-81
2024/01/13 13:42:19;;;;;;;11.90;2.83;;;;;;;;;;6285826;22;20023;-82
2024/01/13 13:44:46;;;;;;;8.30;2.65;;;;;;;;;;6313287;22;20023;-81
2024/01/13 13:47:12;;;;;;;7.50;2.47;;;;;;;;;;6313000;22;20019;-81
2024/01/13 13:49:38;;;;;;;9.82;3.05;;;;;;;;;;6313081;22;20349;-81
2024/01/13 13:52:04;;;;;;;12.27;3.05;;;;;;;;;;6312807;22;20447;-81
2024/01/13 13:54:30;;;;;;;9.35;2.35;;;;;;;;;;6313138;22;20021;-81
2024/01/13 13:56:58;;;;;;;9.02;2.38;;;;;;;;;;6284273;22;20020;-81
2024/01/13 13:59:24;;;;;;;11.23;2.67;;;;;;;;;;6284840;22;20098;-81
2024/01/13 14:01:50;;;;;;;13.43;2.15;;;;;;;;;;6312790;22;20023;-82
2024/01/13 14:04:16;;;;;;;10.35;2.33;;;;;;;;;;6284924;22;20461;-81
2024/01/13 14:06:42;;;;;;;13.73;3.20;;;;;;;;;;6285104;22;20019;-81
2024/01/13 14:09:08;;;;;;;11.60;3.15;;;;;;;;;;6285187;22;20046;-83
2024/01/13 14:11:36;;;;;;;18.15;3.45;;;;;;;;;;6312916;22;20015;-81
2024/01/13 14:14:03;;;;;;;13.45;2.92;;;;;;;;;;6312595;22;20098;-82
2024/01/13 14:16:30;;;;;;;10.82;2.70;;;;;;;;;;6311696;22;20027;-81
2024/01/13 14:18:56;;;;;;;12.48;2.85;;;;;;;;;;6284375;22;20019;-81
2024/01/13 14:21:23;;;;;;;13.77;2.40;;;;;;;;;;6312462;22;20042;-82
2024/01/13 14:23:49;;;;;;;8.82;2.85;;;;;;;;;;6312330;22;20015;-82
2024/01/13 14:26:15;;;;;;;13.05;2.33;;;;;;;;;;6312404;22;20015;-82
2024/01/13 14:28:41;;;;;;;9.27;2.63;;;;;;;;;;6312810;22;20034;-82
2024/01/13 14:31:07;;;;;;;15.80;2.50;;;;;;;;;;6311672;22;20321;-82
2024/01/13 14:33:33;;;;;;;9.93;3.55;;;;;;;;;;6312537;22;20095;-83